ENHV/HVG METAR and TAF weather

Enter ICAO airport designator
Station Type Date Time Source
ENHV METAR 2018/12/13 17:50 UTC NOAA

ENHV 131750Z 25026G37KT 9999 BKN024 07/02 Q1017


Station Type Date Time Source
ENHV Decoded METAR 2018/12/13 17:50 UTC NOAA

Honningsvag / Valan, Norway (ENHV) 71-01N 025-59E 14M
Dec 13, 2018 - 12:50 PM EST / 2018.12.13 1750 UTC
Wind: from the WSW (250 degrees) at 30 MPH (26 KT) gusting to 43 MPH (37 KT):0
Visibility: greater than 7 mile(s):0
Sky conditions: mostly cloudy
Temperature: 44 F (7 C)
Dew Point: 35 F (2 C)
Relative Humidity: 70%
Pressure (altimeter): 30.03 in. Hg (1017 hPa)
ob: ENHV 131750Z 25026G37KT 9999 BKN024 07/02 Q1017
cycle: 18

Station Type Date Time Source
ENHV TAF UTC NOAA

Error!


Example: see airport list